Time;durP1;ratioP1;P1;durP2;ratioP2;P2;SDS_P1;SDS_P2;PMS_P1;PMS_P2;Temp;Humidity;BMP_temperature;BMP_pressure;BME280_temperature;BME280_humidity;BME280_pressure;Samples;Min_cycle;Max_cycle;Signal;HPM_P1;HPM_P2
2021/09/07 00:00:44;;;;;;;12.27;10.30;;;;;;;;;;5023780;28;20206;-78
2021/09/07 00:03:09;;;;;;;10.77;8.80;;;;;;;;;;5024981;28;20181;-78
2021/09/07 00:05:34;;;;;;;11.10;9.37;;;;;;;;;;5020059;28;22341;-78
2021/09/07 00:07:59;;;;;;;12.87;9.87;;;;;;;;;;5022923;28;20180;-78
2021/09/07 00:10:25;;;;;;;10.70;8.77;;;;;;;;;;5022666;28;20197;-78
2021/09/07 00:12:50;;;;;;;11.20;9.70;;;;;;;;;;5021024;28;20533;-79
2021/09/07 00:15:18;;;;;;;11.63;10.07;;;;;;;;;;5019641;28;22239;-78
2021/09/07 00:17:44;;;;;;;10.50;8.60;;;;;;;;;;5022065;28;20620;-78
2021/09/07 00:20:10;;;;;;;10.20;8.70;;;;;;;;;;5022154;28;20435;-78
2021/09/07 00:22:35;;;;;;;11.63;9.80;;;;;;;;;;5022775;28;20276;-78
2021/09/07 00:25:01;;;;;;;10.87;9.17;;;;;;;;;;5020689;28;20176;-78
2021/09/07 00:27:26;;;;;;;10.03;8.43;;;;;;;;;;5023565;28;20189;-78
2021/09/07 00:29:51;;;;;;;12.40;8.93;;;;;;;;;;5022873;28;20187;-78
2021/09/07 00:32:16;;;;;;;12.33;10.30;;;;;;;;;;5021795;28;20251;-78
2021/09/07 00:34:42;;;;;;;11.27;10.07;;;;;;;;;;5022184;28;20666;-78
2021/09/07 00:37:07;;;;;;;11.97;10.50;;;;;;;;;;5022358;28;20193;-78
2021/09/07 00:39:32;;;;;;;10.83;9.30;;;;;;;;;;5023579;28;20255;-78
2021/09/07 00:41:57;;;;;;;13.80;12.03;;;;;;;;;;5021867;28;20204;-78
2021/09/07 00:44:23;;;;;;;11.73;10.50;;;;;;;;;;5020880;28;20184;-78
2021/09/07 00:46:55;;;;;;;12.67;11.10;;;;;;;;;;5021136;28;20240;-78
2021/09/07 00:49:21;;;;;;;12.30;10.80;;;;;;;;;;5023036;28;20199;-78
2021/09/07 00:51:47;;;;;;;14.03;11.83;;;;;;;;;;5022160;28;20456;-78
2021/09/07 00:54:13;;;;;;;13.83;12.30;;;;;;;;;;5019285;28;20201;-78
2021/09/07 00:56:39;;;;;;;15.93;12.83;;;;;;;;;;5021279;28;20435;-78
2021/09/07 00:59:05;;;;;;;15.83;14.13;;;;;;;;;;5019806;28;20180;-78
2021/09/07 01:01:30;;;;;;;15.30;13.70;;;;;;;;;;5019987;28;20452;-78
2021/09/07 01:03:55;;;;;;;16.73;14.27;;;;;;;;;;5018627;28;20221;-78
2021/09/07 01:06:20;;;;;;;18.63;15.27;;;;;;;;;;5020416;28;20516;-78
2021/09/07 01:08:46;;;;;;;18.07;14.80;;;;;;;;;;5018874;28;20188;-78
2021/09/07 01:11:14;;;;;;;21.97;15.60;;;;;;;;;;5018950;28;20204;-78
2021/09/07 01:13:39;;;;;;;15.50;13.60;;;;;;;;;;5021130;28;20570;-78
2021/09/07 01:16:04;;;;;;;17.70;14.23;;;;;;;;;;5019849;28;20431;-78
2021/09/07 01:18:29;;;;;;;23.40;16.30;;;;;;;;;;5024910;28;20616;-78
2021/09/07 01:20:55;;;;;;;21.80;17.00;;;;;;;;;;5020633;28;20222;-78
2021/09/07 01:23:20;;;;;;;21.37;17.93;;;;;;;;;;5023942;28;20252;-78
2021/09/07 01:25:45;;;;;;;21.13;17.93;;;;;;;;;;5022911;28;20185;-78
2021/09/07 01:28:14;;;;;;;22.40;16.17;;;;;;;;;;5021348;28;20240;-78
2021/09/07 01:30:39;;;;;;;24.83;16.67;;;;;;;;;;5021862;28;20287;-78
2021/09/07 01:33:04;;;;;;;18.23;16.30;;;;;;;;;;5024780;28;20467;-79
2021/09/07 01:35:29;;;;;;;19.47;17.20;;;;;;;;;;5019822;28;20174;-79
2021/09/07 01:37:55;;;;;;;21.23;17.90;;;;;;;;;;5022206;28;20196;-78
2021/09/07 01:40:20;;;;;;;22.40;17.97;;;;;;;;;;5021506;28;20236;-78
2021/09/07 01:42:45;;;;;;;18.67;16.63;;;;;;;;;;5023072;28;20648;-79
2021/09/07 01:45:11;;;;;;;25.97;18.80;;;;;;;;;;5019816;28;20202;-78
2021/09/07 01:47:40;;;;;;;26.23;20.33;;;;;;;;;;5020736;28;20177;-79
2021/09/07 01:50:06;;;;;;;23.10;19.67;;;;;;;;;;5020646;28;20184;-78
2021/09/07 01:52:31;;;;;;;25.27;19.53;;;;;;;;;;5021898;28;20437;-78
2021/09/07 01:54:56;;;;;;;21.37;18.97;;;;;;;;;;5019426;28;20212;-78
2021/09/07 01:57:21;;;;;;;23.20;19.23;;;;;;;;;;5020085;28;20280;-78
2021/09/07 01:59:47;;;;;;;28.67;20.17;;;;;;;;;;5022187;28;20255;-78
2021/09/07 02:02:12;;;;;;;26.47;20.87;;;;;;;;;;5021073;28;20195;-79
2021/09/07 02:04:37;;;;;;;23.37;20.50;;;;;;;;;;5019479;28;20188;-79
2021/09/07 02:07:03;;;;;;;22.67;20.23;;;;;;;;;;5018853;28;20195;-79
2021/09/07 02:09:28;;;;;;;25.37;20.67;;;;;;;;;;5019390;28;20181;-78
2021/09/07 02:11:56;;;;;;;27.37;22.57;;;;;;;;;;5016947;28;20547;-78
2021/09/07 02:14:21;;;;;;;24.80;21.73;;;;;;;;;;5015917;28;20204;-78
2021/09/07 02:16:46;;;;;;;28.90;24.13;;;;;;;;;;5017096;28;20443;-78
2021/09/07 02:19:12;;;;;;;26.20;21.93;;;;;;;;;;5018851;28;20195;-78
2021/09/07 02:21:37;;;;;;;22.63;20.00;;;;;;;;;;5025150;28;20196;-78
2021/09/07 02:24:02;;;;;;;25.77;21.50;;;;;;;;;;5024830;28;20222;-78
2021/09/07 02:26:27;;;;;;;28.33;22.40;;;;;;;;;;5023604;28;20234;-78
2021/09/07 02:28:53;;;;;;;26.60;20.57;;;;;;;;;;5020457;28;20190;-78
2021/09/07 02:31:18;;;;;;;26.53;20.60;;;;;;;;;;5025570;28;20703;-78
2021/09/07 02:33:43;;;;;;;26.73;21.23;;;;;;;;;;5021399;28;20691;-78
2021/09/07 02:36:08;;;;;;;25.60;20.20;;;;;;;;;;5022640;28;20191;-78
2021/09/07 02:38:34;;;;;;;26.37;21.20;;;;;;;;;;5022602;28;20177;-78
2021/09/07 02:40:59;;;;;;;23.40;19.63;;;;;;;;;;5022048;28;20201;-79
2021/09/07 02:43:25;;;;;;;27.30;20.93;;;;;;;;;;5023209;28;20185;-78
2021/09/07 02:45:51;;;;;;;26.37;20.53;;;;;;;;;;5024534;28;20268;-78
2021/09/07 02:48:16;;;;;;;23.60;17.60;;;;;;;;;;5026024;28;20650;-78
2021/09/07 02:50:41;;;;;;;22.53;18.40;;;;;;;;;;5020094;28;20454;-78
2021/09/07 02:53:06;;;;;;;26.93;20.30;;;;;;;;;;5023111;28;20700;-78
2021/09/07 02:55:32;;;;;;;25.17;19.27;;;;;;;;;;5022646;28;20571;-78
2021/09/07 02:57:57;;;;;;;19.23;17.23;;;;;;;;;;5021042;28;20199;-79
2021/09/07 03:00:22;;;;;;;25.13;19.07;;;;;;;;;;5021816;28;20205;-78
2021/09/07 03:02:47;;;;;;;19.30;16.07;;;;;;;;;;5022564;28;20261;-78
2021/09/07 03:05:13;;;;;;;18.90;15.90;;;;;;;;;;5022430;28;20219;-78
2021/09/07 03:07:38;;;;;;;19.90;16.50;;;;;;;;;;5022666;28;20188;-79
2021/09/07 03:10:04;;;;;;;21.07;16.30;;;;;;;;;;5018003;28;20238;-78
2021/09/07 03:12:29;;;;;;;18.57;15.83;;;;;;;;;;5021021;28;20192;-78
2021/09/07 03:14:54;;;;;;;21.30;16.83;;;;;;;;;;5022467;28;20236;-79
2021/09/07 03:17:19;;;;;;;21.27;15.90;;;;;;;;;;5021389;28;20185;-78
2021/09/07 03:19:44;;;;;;;18.07;15.97;;;;;;;;;;5020333;28;20661;-78
2021/09/07 03:22:10;;;;;;;21.90;17.07;;;;;;;;;;5021478;28;20199;-78
2021/09/07 03:24:35;;;;;;;17.20;15.23;;;;;;;;;;5023795;28;20189;-78
2021/09/07 03:27:00;;;;;;;17.73;14.90;;;;;;;;;;5024877;28;20561;-78
2021/09/07 03:29:25;;;;;;;19.40;16.13;;;;;;;;;;5020389;28;20184;-78
2021/09/07 03:31:51;;;;;;;18.47;16.07;;;;;;;;;;5021395;28;20221;-77
2021/09/07 03:34:16;;;;;;;19.17;16.00;;;;;;;;;;5022909;28;20669;-78
2021/09/07 03:36:41;;;;;;;24.50;17.73;;;;;;;;;;5020645;28;20542;-78
2021/09/07 03:39:07;;;;;;;26.80;18.73;;;;;;;;;;5020593;28;20185;-78
2021/09/07 03:41:32;;;;;;;20.83;16.90;;;;;;;;;;5023303;28;20886;-78
2021/09/07 03:43:57;;;;;;;20.17;16.30;;;;;;;;;;5021611;28;20189;-78
2021/09/07 03:46:23;;;;;;;21.50;17.97;;;;;;;;;;5024298;28;20196;-78
2021/09/07 03:48:48;;;;;;;21.20;18.80;;;;;;;;;;5022955;28;20180;-80
2021/09/07 03:51:13;;;;;;;19.13;17.13;;;;;;;;;;5023029;28;20301;-78
2021/09/07 03:53:38;;;;;;;23.30;17.87;;;;;;;;;;5047579;22;20232;-86
2021/09/07 03:56:04;;;;;;;24.13;16.93;;;;;;;;;;5040680;28;20183;-87
2021/09/07 03:58:29;;;;;;;21.20;18.03;;;;;;;;;;5040946;28;20192;-86
2021/09/07 04:00:54;;;;;;;19.27;17.23;;;;;;;;;;5042858;28;20192;-86
2021/09/07 04:03:20;;;;;;;21.57;18.20;;;;;;;;;;5042841;28;20203;-88
2021/09/07 04:05:46;;;;;;;19.53;17.40;;;;;;;;;;5039743;28;20183;-87
2021/09/07 04:08:11;;;;;;;23.70;18.60;;;;;;;;;;5041537;28;20450;-86
2021/09/07 04:10:36;;;;;;;20.53;18.23;;;;;;;;;;5043286;28;20180;-87
2021/09/07 04:13:02;;;;;;;21.07;18.20;;;;;;;;;;5044233;28;20217;-88
2021/09/07 04:15:27;;;;;;;19.77;17.67;;;;;;;;;;5045479;28;20195;-88
2021/09/07 04:17:52;;;;;;;22.13;18.20;;;;;;;;;;5043186;28;20267;-88
2021/09/07 04:20:18;;;;;;;21.90;17.60;;;;;;;;;;5042380;28;20752;-88
2021/09/07 04:22:43;;;;;;;24.40;18.40;;;;;;;;;;5055467;28;20199;-88
2021/09/07 04:25:08;;;;;;;18.70;16.67;;;;;;;;;;5039220;28;20551;-89
2021/09/07 04:27:34;;;;;;;20.27;18.07;;;;;;;;;;5040887;28;20846;-88
2021/09/07 04:29:59;;;;;;;25.20;20.40;;;;;;;;;;5043313;28;20188;-89
2021/09/07 04:32:24;;;;;;;19.63;17.47;;;;;;;;;;5041465;28;20191;-88
2021/09/07 04:34:49;;;;;;;21.43;19.17;;;;;;;;;;5039785;28;20770;-89
2021/09/07 04:37:15;;;;;;;20.03;17.60;;;;;;;;;;5042432;28;20660;-89
2021/09/07 04:39:40;;;;;;;23.67;20.07;;;;;;;;;;5038397;28;20645;-89
2021/09/07 04:42:05;;;;;;;22.87;20.10;;;;;;;;;;5039701;28;20180;-89
2021/09/07 04:44:31;;;;;;;23.60;21.20;;;;;;;;;;5041476;28;20207;-89
2021/09/07 04:46:56;;;;;;;20.67;18.10;;;;;;;;;;5041479;28;20181;-88
2021/09/07 04:49:21;;;;;;;22.60;18.53;;;;;;;;;;5042576;28;20194;-88
2021/09/07 04:51:46;;;;;;;22.10;18.43;;;;;;;;;;5040590;28;20242;-88
2021/09/07 04:54:12;;;;;;;21.40;18.50;;;;;;;;;;5042051;28;20204;-87
2021/09/07 04:56:37;;;;;;;21.60;19.23;;;;;;;;;;5038511;28;20208;-87
2021/09/07 04:59:03;;;;;;;22.13;17.83;;;;;;;;;;5039265;28;20234;-87
2021/09/07 05:01:28;;;;;;;24.27;17.77;;;;;;;;;;5040354;28;20686;-88
2021/09/07 05:03:53;;;;;;;21.20;17.70;;;;;;;;;;5041312;28;20462;-87
2021/09/07 05:06:19;;;;;;;22.10;18.10;;;;;;;;;;5036826;28;20185;-87
2021/09/07 05:08:44;;;;;;;20.10;17.20;;;;;;;;;;5037372;28;20184;-87
2021/09/07 05:11:09;;;;;;;19.67;17.57;;;;;;;;;;5041265;28;20184;-87
2021/09/07 05:13:34;;;;;;;23.10;18.10;;;;;;;;;;5038863;28;20210;-88
2021/09/07 05:16:00;;;;;;;18.27;16.03;;;;;;;;;;5037599;28;20552;-88
2021/09/07 05:18:25;;;;;;;20.40;18.23;;;;;;;;;;5041784;28;20179;-87
2021/09/07 05:20:50;;;;;;;24.20;18.23;;;;;;;;;;5041554;28;20171;-87
2021/09/07 05:23:15;;;;;;;20.80;18.37;;;;;;;;;;5047428;28;20234;-87
2021/09/07 05:25:41;;;;;;;22.40;18.27;;;;;;;;;;5036845;28;20175;-87
2021/09/07 05:28:06;;;;;;;20.13;17.80;;;;;;;;;;5037145;28;20184;-87
2021/09/07 05:30:31;;;;;;;22.23;18.57;;;;;;;;;;5040093;28;20188;-87
2021/09/07 05:32:56;;;;;;;22.83;18.27;;;;;;;;;;5035770;28;20199;-88
2021/09/07 05:35:22;;;;;;;18.93;16.87;;;;;;;;;;5038878;28;20200;-87
2021/09/07 05:37:47;;;;;;;21.10;17.47;;;;;;;;;;5038516;28;20283;-88
2021/09/07 05:40:13;;;;;;;27.90;19.07;;;;;;;;;;5041042;28;20199;-88
2021/09/07 05:42:41;;;;;;;18.60;16.70;;;;;;;;;;5039609;28;20192;-88
2021/09/07 05:45:07;;;;;;;20.23;17.53;;;;;;;;;;5037300;28;20434;-87
2021/09/07 05:47:32;;;;;;;21.87;17.73;;;;;;;;;;5041398;28;20817;-87
2021/09/07 05:49:58;;;;;;;19.27;17.27;;;;;;;;;;5039941;28;20564;-88
2021/09/07 05:52:23;;;;;;;20.30;17.73;;;;;;;;;;5039267;28;20255;-87
2021/09/07 05:54:48;;;;;;;21.13;18.63;;;;;;;;;;5035186;28;20202;-87
2021/09/07 05:57:13;;;;;;;18.63;16.43;;;;;;;;;;5042764;28;20190;-86
2021/09/07 05:59:41;;;;;;;18.20;16.30;;;;;;;;;;5038303;28;20181;-87
2021/09/07 06:02:06;;;;;;;18.60;16.70;;;;;;;;;;5038511;28;20190;-86
2021/09/07 06:04:31;;;;;;;19.83;17.73;;;;;;;;;;5042254;28;20540;-87
2021/09/07 06:06:57;;;;;;;19.07;16.50;;;;;;;;;;5035905;28;20275;-87
2021/09/07 06:09:22;;;;;;;18.60;16.60;;;;;;;;;;5039726;28;20234;-87
2021/09/07 06:11:47;;;;;;;18.27;16.37;;;;;;;;;;5035643;28;20183;-86
2021/09/07 06:14:13;;;;;;;20.80;16.50;;;;;;;;;;5037994;28;20204;-87
2021/09/07 06:16:38;;;;;;;27.73;19.00;;;;;;;;;;5037733;28;20854;-87
2021/09/07 06:19:04;;;;;;;17.30;15.50;;;;;;;;;;5039737;28;20177;-87
2021/09/07 06:21:29;;;;;;;24.27;18.40;;;;;;;;;;5040582;28;20183;-86
2021/09/07 06:23:54;;;;;;;22.87;17.73;;;;;;;;;;5040496;28;20196;-86
2021/09/07 06:26:19;;;;;;;21.07;16.80;;;;;;;;;;5041766;28;20191;-87
2021/09/07 06:28:45;;;;;;;26.13;17.30;;;;;;;;;;5039122;28;20271;-87
2021/09/07 06:31:10;;;;;;;25.03;18.20;;;;;;;;;;5039388;28;20271;-86
2021/09/07 06:33:36;;;;;;;19.73;16.60;;;;;;;;;;5039418;28;20214;-86
2021/09/07 06:36:01;;;;;;;24.80;18.60;;;;;;;;;;5040158;28;20173;-87
2021/09/07 06:38:26;;;;;;;23.70;18.50;;;;;;;;;;5042847;28;20589;-86
2021/09/07 06:40:51;;;;;;;23.63;16.40;;;;;;;;;;5044212;28;20215;-86
2021/09/07 06:43:17;;;;;;;23.50;17.77;;;;;;;;;;5040463;28;20196;-86
2021/09/07 06:45:42;;;;;;;21.20;17.07;;;;;;;;;;5039603;28;20189;-87
2021/09/07 06:48:07;;;;;;;20.00;16.90;;;;;;;;;;5039664;28;20176;-87
2021/09/07 06:50:33;;;;;;;23.40;19.53;;;;;;;;;;5039372;28;20211;-86
2021/09/07 06:52:59;;;;;;;24.63;19.73;;;;;;;;;;5038692;28;20291;-85
2021/09/07 06:55:24;;;;;;;22.20;18.07;;;;;;;;;;5037421;28;20212;-86
2021/09/07 06:57:50;;;;;;;19.83;17.00;;;;;;;;;;5036678;28;20820;-84
2021/09/07 07:00:17;;;;;;;21.53;18.33;;;;;;;;;;5040238;28;20200;-86
2021/09/07 07:02:42;;;;;;;23.87;19.27;;;;;;;;;;5045454;28;20204;-85
2021/09/07 07:05:08;;;;;;;20.20;17.70;;;;;;;;;;5038763;28;20433;-86
2021/09/07 07:07:33;;;;;;;20.03;16.80;;;;;;;;;;5043006;28;20195;-85
2021/09/07 07:09:58;;;;;;;22.27;19.30;;;;;;;;;;5043136;28;20191;-85
2021/09/07 07:12:23;;;;;;;23.90;19.73;;;;;;;;;;5039654;28;20188;-85
2021/09/07 07:14:49;;;;;;;26.93;19.90;;;;;;;;;;5048412;28;20697;-86
2021/09/07 07:17:14;;;;;;;21.20;18.47;;;;;;;;;;5041225;28;20238;-86
2021/09/07 07:19:39;;;;;;;21.63;17.70;;;;;;;;;;5041083;28;20459;-84
2021/09/07 07:22:04;;;;;;;23.70;18.80;;;;;;;;;;5040878;28;20271;-84
2021/09/07 07:24:30;;;;;;;21.17;16.97;;;;;;;;;;5041503;28;20216;-86
2021/09/07 07:26:55;;;;;;;24.53;17.77;;;;;;;;;;5042439;28;20249;-86
2021/09/07 07:29:20;;;;;;;25.20;19.57;;;;;;;;;;5042408;28;20188;-86
2021/09/07 07:31:45;;;;;;;22.87;18.90;;;;;;;;;;5047712;28;20677;-86
2021/09/07 07:34:11;;;;;;;24.63;20.30;;;;;;;;;;5040840;28;20215;-86
2021/09/07 07:36:36;;;;;;;22.67;18.53;;;;;;;;;;5041296;28;20191;-86
2021/09/07 07:39:02;;;;;;;23.83;18.93;;;;;;;;;;5046119;28;20183;-84
2021/09/07 07:41:27;;;;;;;23.63;18.77;;;;;;;;;;5039424;28;20263;-85
2021/09/07 07:43:53;;;;;;;24.73;19.37;;;;;;;;;;5043706;28;20580;-85
2021/09/07 07:46:18;;;;;;;23.30;19.93;;;;;;;;;;5042116;28;20180;-86
2021/09/07 07:48:43;;;;;;;22.60;18.77;;;;;;;;;;5039695;28;20211;-85
2021/09/07 07:51:09;;;;;;;20.43;16.57;;;;;;;;;;5044249;28;20171;-84
2021/09/07 07:53:35;;;;;;;20.03;17.00;;;;;;;;;;5042724;28;20276;-85
2021/09/07 07:56:00;;;;;;;20.23;16.70;;;;;;;;;;5041425;28;20182;-85
2021/09/07 07:58:28;;;;;;;21.77;18.03;;;;;;;;;;5041990;28;20279;-85
2021/09/07 08:00:54;;;;;;;18.50;16.50;;;;;;;;;;5040236;28;20184;-84
2021/09/07 08:03:19;;;;;;;19.10;15.30;;;;;;;;;;5046332;28;20798;-85
2021/09/07 08:05:44;;;;;;;16.97;13.63;;;;;;;;;;5040503;28;20180;-85
2021/09/07 08:08:09;;;;;;;19.30;15.73;;;;;;;;;;5040692;28;20183;-85
2021/09/07 08:10:35;;;;;;;19.93;14.17;;;;;;;;;;5041534;28;20204;-85
2021/09/07 08:13:00;;;;;;;15.33;13.53;;;;;;;;;;5042640;28;20191;-85
2021/09/07 08:15:25;;;;;;;20.23;13.87;;;;;;;;;;5042960;28;20272;-84
2021/09/07 08:17:51;;;;;;;15.50;11.90;;;;;;;;;;5037867;28;20184;-84
2021/09/07 08:20:16;;;;;;;15.47;12.60;;;;;;;;;;5041696;28;20179;-85
2021/09/07 08:22:42;;;;;;;12.57;10.57;;;;;;;;;;5040456;28;20709;-85
2021/09/07 08:25:07;;;;;;;11.77;9.23;;;;;;;;;;5042824;28;20187;-85
2021/09/07 08:27:33;;;;;;;12.10;9.30;;;;;;;;;;5041356;28;20275;-85
2021/09/07 08:29:58;;;;;;;15.53;8.80;;;;;;;;;;5039559;28;20180;-84
2021/09/07 08:32:23;;;;;;;8.60;6.83;;;;;;;;;;5040696;28;20184;-84
2021/09/07 08:34:48;;;;;;;8.00;7.20;;;;;;;;;;5039055;28;20196;-85
2021/09/07 08:37:14;;;;;;;8.93;7.13;;;;;;;;;;5039169;28;20183;-85
2021/09/07 08:39:39;;;;;;;8.20;7.00;;;;;;;;;;5042144;28;20538;-85
2021/09/07 08:42:09;;;;;;;11.27;8.53;;;;;;;;;;5040420;28;20633;-84
2021/09/07 08:44:35;;;;;;;8.23;6.83;;;;;;;;;;5042203;28;20211;-84
2021/09/07 08:47:00;;;;;;;10.20;7.47;;;;;;;;;;5041536;28;20460;-85
2021/09/07 08:49:25;;;;;;;7.57;6.50;;;;;;;;;;5048368;28;20220;-85
2021/09/07 08:51:50;;;;;;;8.43;6.90;;;;;;;;;;5038313;28;20235;-85
2021/09/07 08:54:16;;;;;;;7.00;5.97;;;;;;;;;;5040984;28;20231;-84
2021/09/07 08:56:41;;;;;;;7.00;5.80;;;;;;;;;;5041068;28;20208;-85
2021/09/07 08:59:07;;;;;;;11.30;6.77;;;;;;;;;;5041075;28;20204;-85
2021/09/07 09:01:40;;;;;;;7.10;5.87;;;;;;;;;;5047553;28;20536;-84
2021/09/07 09:04:05;;;;;;;11.03;7.20;;;;;;;;;;5040208;28;20876;-83
2021/09/07 09:06:30;;;;;;;7.90;6.23;;;;;;;;;;5039664;28;20446;-84
2021/09/07 09:09:06;;;;;;;13.63;7.60;;;;;;;;;;5040655;28;20264;-84
2021/09/07 09:11:50;;;;;;;10.10;7.63;;;;;;;;;;5041592;28;20184;-84
2021/09/07 09:14:34;;;;;;;11.10;7.40;;;;;;;;;;5042237;28;20468;-84
2021/09/07 09:17:00;;;;;;;10.17;7.93;;;;;;;;;;5036452;28;20461;-84
2021/09/07 09:19:25;;;;;;;13.23;6.93;;;;;;;;;;5040855;28;20920;-85
2021/09/07 09:21:51;;;;;;;6.70;5.30;;;;;;;;;;5040114;28;20663;-85
2021/09/07 09:24:22;;;;;;;6.57;5.40;;;;;;;;;;5038470;28;20207;-85
2021/09/07 09:26:52;;;;;;;8.57;7.17;;;;;;;;;;5038873;28;20259;-85
2021/09/07 09:29:36;;;;;;;7.03;5.93;;;;;;;;;;5035960;28;20439;-85
2021/09/07 09:32:12;;;;;;;6.17;5.20;;;;;;;;;;5033820;28;20439;-84
2021/09/07 09:34:38;;;;;;;10.33;6.97;;;;;;;;;;5039334;28;20473;-83
2021/09/07 09:37:08;;;;;;;10.00;7.20;;;;;;;;;;5039839;28;20441;-83
2021/09/07 09:39:34;;;;;;;8.17;6.43;;;;;;;;;;5039285;28;20675;-84
2021/09/07 09:42:00;;;;;;;9.90;7.13;;;;;;;;;;5040208;28;20521;-85
2021/09/07 09:44:27;;;;;;;8.00;6.07;;;;;;;;;;5042551;28;20541;-84
2021/09/07 09:46:52;;;;;;;7.40;6.17;;;;;;;;;;5039958;28;20298;-84
2021/09/07 09:49:17;;;;;;;9.50;7.13;;;;;;;;;;5042038;28;20898;-84
2021/09/07 09:51:43;;;;;;;9.17;7.33;;;;;;;;;;5043770;28;20644;-84
2021/09/07 09:54:08;;;;;;;11.27;6.77;;;;;;;;;;5042700;28;20204;-84
2021/09/07 09:56:34;;;;;;;10.37;6.60;;;;;;;;;;5042535;28;20183;-84
2021/09/07 09:59:01;;;;;;;6.57;5.63;;;;;;;;;;5040537;28;20275;-84
2021/09/07 10:01:27;;;;;;;11.77;6.90;;;;;;;;;;5037321;28;20438;-84
2021/09/07 10:03:54;;;;;;;7.77;5.53;;;;;;;;;;5042562;28;20450;-84
2021/09/07 10:06:20;;;;;;;9.90;7.33;;;;;;;;;;5041107;28;20179;-84
2021/09/07 10:08:45;;;;;;;14.10;8.10;;;;;;;;;;5043703;28;20427;-84
2021/09/07 10:11:14;;;;;;;12.40;7.87;;;;;;;;;;5042078;28;20431;-84
2021/09/07 10:13:42;;;;;;;11.77;8.10;;;;;;;;;;5042400;28;20683;-84
2021/09/07 10:16:11;;;;;;;11.70;8.03;;;;;;;;;;5042389;28;20506;-83
2021/09/07 10:18:58;;;;;;;10.40;7.70;;;;;;;;;;5041902;28;20553;-82
2021/09/07 10:24:14;;;;;;;8.87;7.47;;;;;;;;;;5038112;28;20464;-84
2021/09/07 10:26:40;;;;;;;11.63;7.93;;;;;;;;;;5038722;28;20422;-83
2021/09/07 10:29:06;;;;;;;14.00;10.10;;;;;;;;;;5036712;28;20454;-84
2021/09/07 10:31:39;;;;;;;11.53;9.03;;;;;;;;;;5039713;28;20236;-84
2021/09/07 10:34:04;;;;;;;12.60;9.43;;;;;;;;;;5039158;28;20470;-84
2021/09/07 10:36:31;;;;;;;16.40;11.13;;;;;;;;;;5039058;28;20450;-84
2021/09/07 10:38:57;;;;;;;13.73;9.20;;;;;;;;;;5038781;28;20176;-84
2021/09/07 10:41:28;;;;;;;12.33;9.47;;;;;;;;;;5043565;28;20431;-83
2021/09/07 10:43:57;;;;;;;11.37;8.73;;;;;;;;;;5041149;28;20584;-84
2021/09/07 10:46:38;;;;;;;9.30;8.30;;;;;;;;;;5043542;28;20434;-84
2021/09/07 10:49:13;;;;;;;13.37;9.07;;;;;;;;;;5045058;28;20405;-84
2021/09/07 10:51:57;;;;;;;12.20;9.80;;;;;;;;;;5043443;28;20434;-84
2021/09/07 10:54:25;;;;;;;8.83;7.43;;;;;;;;;;5041709;28;20551;-83
2021/09/07 10:56:50;;;;;;;11.67;9.13;;;;;;;;;;5039006;28;20923;-84
2021/09/07 10:59:38;;;;;;;12.83;9.57;;;;;;;;;;5044886;28;20442;-84
2021/09/07 11:02:23;;;;;;;14.30;9.73;;;;;;;;;;5042366;28;20176;-84
2021/09/07 11:04:51;;;;;;;10.60;8.30;;;;;;;;;;5039071;28;20505;-84
2021/09/07 11:07:34;;;;;;;10.67;8.97;;;;;;;;;;5043034;28;20425;-84
2021/09/07 11:10:00;;;;;;;13.60;10.47;;;;;;;;;;5045350;28;20801;-84
2021/09/07 11:12:25;;;;;;;9.60;8.57;;;;;;;;;;5044898;28;20445;-84
2021/09/07 11:15:03;;;;;;;11.20;9.50;;;;;;;;;;5042266;28;20231;-84
2021/09/07 11:17:29;;;;;;;13.10;9.27;;;;;;;;;;5042004;28;20642;-84
2021/09/07 11:20:02;;;;;;;13.87;9.50;;;;;;;;;;5042291;28;20437;-84
2021/09/07 11:22:31;;;;;;;10.30;9.03;;;;;;;;;;5040561;28;20176;-84
2021/09/07 11:25:03;;;;;;;17.53;11.17;;;;;;;;;;5051584;28;20426;-85
2021/09/07 11:27:47;;;;;;;16.87;11.13;;;;;;;;;;5059084;28;20476;-85
2021/09/07 11:30:22;;;;;;;12.40;9.17;;;;;;;;;;5044117;28;20968;-85
2021/09/07 11:32:48;;;;;;;12.30;8.70;;;;;;;;;;5042629;28;20853;-85
2021/09/07 11:35:13;;;;;;;10.20;8.73;;;;;;;;;;5041291;28;20469;-85
2021/09/07 11:37:38;;;;;;;10.70;9.53;;;;;;;;;;5044298;28;20177;-84
2021/09/07 11:40:11;;;;;;;10.87;9.70;;;;;;;;;;5041897;28;20634;-84
2021/09/07 11:42:43;;;;;;;13.00;10.97;;;;;;;;;;5038801;28;20195;-84
2021/09/07 11:45:09;;;;;;;14.13;11.03;;;;;;;;;;5044370;28;20439;-84
2021/09/07 11:47:34;;;;;;;12.90;10.13;;;;;;;;;;5045475;28;20434;-84
2021/09/07 11:49:59;;;;;;;14.63;10.33;;;;;;;;;;5045303;28;20260;-84
2021/09/07 11:52:24;;;;;;;10.70;9.00;;;;;;;;;;5044218;28;20181;-85
2021/09/07 11:54:50;;;;;;;12.07;10.80;;;;;;;;;;5042392;28;20605;-84
2021/09/07 11:57:15;;;;;;;12.10;9.53;;;;;;;;;;5039879;28;20180;-84
2021/09/07 11:59:57;;;;;;;9.50;7.67;;;;;;;;;;5053021;28;20188;-84
2021/09/07 12:02:25;;;;;;;10.70;9.23;;;;;;;;;;5054448;28;20181;-84
2021/09/07 12:04:57;;;;;;;13.10;9.80;;;;;;;;;;5061446;28;21007;-84
2021/09/07 12:07:22;;;;;;;10.00;8.50;;;;;;;;;;5046081;28;20442;-85
2021/09/07 12:09:47;;;;;;;15.53;11.37;;;;;;;;;;5042723;28;20513;-85
2021/09/07 12:12:13;;;;;;;10.40;8.97;;;;;;;;;;5042268;28;20265;-85
2021/09/07 12:14:39;;;;;;;11.30;9.30;;;;;;;;;;5041951;28;20199;-85
2021/09/07 12:17:08;;;;;;;13.10;10.67;;;;;;;;;;5042374;28;20634;-85
2021/09/07 12:19:46;;;;;;;10.23;9.17;;;;;;;;;;5048973;28;20426;-85
2021/09/07 12:22:12;;;;;;;13.27;10.40;;;;;;;;;;5043752;28;20519;-84
2021/09/07 12:24:38;;;;;;;12.27;10.97;;;;;;;;;;5041456;28;20436;-83
2021/09/07 12:27:36;;;;;;;17.23;11.10;;;;;;;;;;5039573;28;20435;-84
2021/09/07 12:30:10;;;;;;;15.17;11.60;;;;;;;;;;5007573;28;20470;-83
2021/09/07 12:32:55;;;;;;;19.63;13.20;;;;;;;;;;5039961;28;20465;-83
2021/09/07 12:35:24;;;;;;;14.10;9.70;;;;;;;;;;5040706;28;20467;-83
2021/09/07 12:37:50;;;;;;;13.07;10.00;;;;;;;;;;5046029;28;20483;-83
2021/09/07 12:40:15;;;;;;;9.87;8.87;;;;;;;;;;5044155;28;20422;-82
2021/09/07 12:42:40;;;;;;;14.00;10.80;;;;;;;;;;5043861;28;20241;-82
2021/09/07 12:45:05;;;;;;;13.83;10.77;;;;;;;;;;5041951;28;20263;-83
2021/09/07 12:47:31;;;;;;;13.27;10.63;;;;;;;;;;5039672;28;20218;-85
2021/09/07 12:49:56;;;;;;;12.90;8.50;;;;;;;;;;5044949;28;20188;-85
2021/09/07 12:52:21;;;;;;;11.23;10.03;;;;;;;;;;5035535;28;20198;-84
2021/09/07 12:54:46;;;;;;;13.80;11.70;;;;;;;;;;5048304;28;20292;-84
2021/09/07 12:57:12;;;;;;;15.20;11.83;;;;;;;;;;5049044;28;20184;-84
2021/09/07 12:59:37;;;;;;;11.70;10.47;;;;;;;;;;5043005;28;20226;-84
2021/09/07 13:02:02;;;;;;;12.13;9.80;;;;;;;;;;5042097;28;20588;-84
2021/09/07 13:04:27;;;;;;;10.53;8.30;;;;;;;;;;5039793;28;20275;-85
2021/09/07 13:06:52;;;;;;;14.30;11.07;;;;;;;;;;5039460;28;20192;-85
2021/09/07 13:09:18;;;;;;;10.57;9.47;;;;;;;;;;5041472;28;20218;-85
2021/09/07 13:11:43;;;;;;;10.87;8.70;;;;;;;;;;5036926;28;20216;-85
2021/09/07 13:14:08;;;;;;;11.03;9.37;;;;;;;;;;5050007;28;20235;-85
2021/09/07 13:16:33;;;;;;;11.00;8.73;;;;;;;;;;5047193;28;20187;-85
2021/09/07 13:18:59;;;;;;;12.77;9.17;;;;;;;;;;5049142;28;20180;-85
2021/09/07 13:21:25;;;;;;;14.40;10.70;;;;;;;;;;5048005;28;20214;-85
2021/09/07 13:23:50;;;;;;;12.93;11.10;;;;;;;;;;5043057;28;20261;-85
2021/09/07 13:26:16;;;;;;;10.30;7.50;;;;;;;;;;5039384;28;20466;-81
2021/09/07 13:28:41;;;;;;;15.60;9.00;;;;;;;;;;5040934;28;20240;-82
2021/09/07 13:31:07;;;;;;;10.40;9.30;;;;;;;;;;5044727;28;20719;-82
2021/09/07 13:33:32;;;;;;;11.10;9.53;;;;;;;;;;5046924;28;20203;-81
2021/09/07 13:35:57;;;;;;;13.83;8.83;;;;;;;;;;5045123;28;20167;-81
2021/09/07 13:38:23;;;;;;;14.80;10.90;;;;;;;;;;5043216;28;20226;-81
2021/09/07 13:40:48;;;;;;;13.40;8.83;;;;;;;;;;5042117;28;20250;-82
2021/09/07 13:43:13;;;;;;;11.50;10.20;;;;;;;;;;5037778;28;20215;-83
2021/09/07 13:45:39;;;;;;;10.40;8.20;;;;;;;;;;5038394;28;20223;-81
2021/09/07 13:48:09;;;;;;;13.03;9.53;;;;;;;;;;5040647;28;20192;-82
2021/09/07 13:50:34;;;;;;;10.53;8.70;;;;;;;;;;5034846;28;20180;-82
2021/09/07 13:52:59;;;;;;;11.03;8.47;;;;;;;;;;5041020;28;20840;-81
2021/09/07 13:55:25;;;;;;;9.30;7.53;;;;;;;;;;5040538;28;20230;-82
2021/09/07 13:57:50;;;;;;;9.40;7.87;;;;;;;;;;5044060;28;20663;-82
2021/09/07 14:00:16;;;;;;;9.50;8.33;;;;;;;;;;5042505;28;20176;-81
2021/09/07 14:02:42;;;;;;;15.07;8.40;;;;;;;;;;5037764;28;20207;-83
2021/09/07 14:05:11;;;;;;;11.83;7.40;;;;;;;;;;5041132;28;20431;-81
2021/09/07 14:07:36;;;;;;;11.10;8.20;;;;;;;;;;5043045;28;20191;-79
2021/09/07 14:10:01;;;;;;;18.83;8.77;;;;;;;;;;5037280;28;20431;-80
2021/09/07 14:12:26;;;;;;;12.47;9.53;;;;;;;;;;5036757;28;20207;-84
2021/09/07 14:14:52;;;;;;;11.13;8.77;;;;;;;;;;5043684;28;20196;-82
2021/09/07 14:17:17;;;;;;;12.87;10.20;;;;;;;;;;5046199;28;20176;-81
2021/09/07 14:19:42;;;;;;;10.87;9.27;;;;;;;;;;5038748;28;20222;-79
2021/09/07 14:22:08;;;;;;;10.50;8.67;;;;;;;;;;5045307;28;20194;-79